Time;durP1;ratioP1;P1;durP2;ratioP2;P2;SDS_P1;SDS_P2;PMS_P1;PMS_P2;Temp;Humidity;BMP_temperature;BMP_pressure;BME280_temperature;BME280_humidity;BME280_pressure;Samples;Min_cycle;Max_cycle;Signal;HPM_P1;HPM_P2
2023/05/21 00:01:42;;;;;;;4.43;3.08;;;;;;;;;;12981082;19;19919;-65
2023/05/21 00:06:02;;;;;;;7.07;4.10;;;;;;;;;;12978260;19;20018;-67
2023/05/21 00:10:20;;;;;;;5.35;3.58;;;;;;;;;;12979291;19;20014;-65
2023/05/21 00:14:40;;;;;;;6.03;3.85;;;;;;;;;;12980171;19;20010;-65
2023/05/21 00:18:58;;;;;;;6.20;3.20;;;;;;;;;;12980039;19;20039;-65
2023/05/21 00:23:17;;;;;;;5.88;3.42;;;;;;;;;;12981657;19;20015;-64
2023/05/21 00:27:35;;;;;;;5.43;3.72;;;;;;;;;;12990574;19;20015;-64
2023/05/21 00:31:57;;;;;;;5.15;3.58;;;;;;;;;;12992460;19;20010;-64
2023/05/21 00:36:15;;;;;;;5.40;3.33;;;;;;;;;;12992205;19;20026;-63
2023/05/21 00:40:36;;;;;;;5.00;3.50;;;;;;;;;;12991837;19;20381;-63
2023/05/21 00:44:53;;;;;;;4.60;3.55;;;;;;;;;;12990251;19;20118;-64
2023/05/21 00:49:13;;;;;;;5.28;3.15;;;;;;;;;;12990569;19;20045;-64
2023/05/21 00:53:33;;;;;;;7.18;3.83;;;;;;;;;;12990813;19;20058;-64
2023/05/21 00:57:52;;;;;;;5.38;3.22;;;;;;;;;;12991319;19;20014;-64
2023/05/21 01:02:13;;;;;;;5.93;3.55;;;;;;;;;;12991510;19;20014;-64
2023/05/21 01:06:33;;;;;;;10.68;4.03;;;;;;;;;;12989231;19;20019;-64
2023/05/21 01:10:53;;;;;;;6.70;3.72;;;;;;;;;;12990389;19;20010;-64
2023/05/21 01:15:12;;;;;;;11.68;3.88;;;;;;;;;;12986850;19;20358;-64
2023/05/21 01:19:34;;;;;;;5.65;3.67;;;;;;;;;;12989071;19;20483;-64
2023/05/21 01:23:53;;;;;;;9.57;3.28;;;;;;;;;;12987153;19;20003;-65
2023/05/21 01:28:12;;;;;;;5.82;3.33;;;;;;;;;;12985630;19;20425;-65
2023/05/21 01:32:55;;;;;;;4.70;3.70;;;;;;;;;;12988676;19;20010;-65
2023/05/21 01:37:31;;;;;;;5.43;3.53;;;;;;;;;;12987789;19;20026;-65
2023/05/21 01:41:52;;;;;;;5.70;3.42;;;;;;;;;;12988339;19;20010;-65
2023/05/21 01:46:16;;;;;;;5.05;3.50;;;;;;;;;;12986401;19;20512;-66
2023/05/21 01:50:39;;;;;;;4.97;3.20;;;;;;;;;;12988333;19;20022;-65
2023/05/21 01:54:58;;;;;;;6.38;3.20;;;;;;;;;;12987284;19;20827;-65
2023/05/21 01:59:17;;;;;;;5.88;3.25;;;;;;;;;;12988937;19;20018;-65
2023/05/21 02:03:37;;;;;;;4.80;3.30;;;;;;;;;;12988624;19;20023;-65
2023/05/21 02:07:55;;;;;;;5.10;3.42;;;;;;;;;;12987984;19;20047;-65
2023/05/21 02:12:13;;;;;;;5.28;3.00;;;;;;;;;;12986348;19;20043;-65
2023/05/21 02:16:31;;;;;;;6.10;3.25;;;;;;;;;;12986527;19;20010;-65
2023/05/21 02:20:49;;;;;;;4.53;3.10;;;;;;;;;;12987100;19;20022;-64
2023/05/21 02:25:09;;;;;;;6.25;2.92;;;;;;;;;;12984515;19;20006;-65
2023/05/21 02:29:28;;;;;;;6.15;3.08;;;;;;;;;;12987070;19;20384;-65
2023/05/21 02:33:46;;;;;;;6.53;3.53;;;;;;;;;;12985502;19;20013;-65
2023/05/21 02:38:07;;;;;;;5.97;3.10;;;;;;;;;;12984413;19;20018;-66
2023/05/21 02:42:25;;;;;;;3.80;2.47;;;;;;;;;;12985231;19;20022;-65
2023/05/21 02:46:43;;;;;;;4.40;3.30;;;;;;;;;;12982383;19;20078;-65
2023/05/21 02:51:02;;;;;;;9.25;3.08;;;;;;;;;;12985518;19;20371;-65
2023/05/21 02:55:21;;;;;;;4.95;2.85;;;;;;;;;;12985694;19;20043;-65
2023/05/21 02:59:39;;;;;;;4.00;3.28;;;;;;;;;;12985660;19;20348;-65
2023/05/21 03:03:57;;;;;;;4.82;2.95;;;;;;;;;;12984505;19;20018;-65
2023/05/21 03:08:16;;;;;;;5.15;2.85;;;;;;;;;;12984137;19;20027;-65
2023/05/21 03:12:34;;;;;;;4.82;2.88;;;;;;;;;;12984567;19;20476;-65
2023/05/21 03:16:51;;;;;;;4.55;3.10;;;;;;;;;;12984290;19;20014;-65
2023/05/21 03:21:12;;;;;;;5.78;3.03;;;;;;;;;;12982239;19;20018;-65
2023/05/21 03:25:30;;;;;;;5.25;2.97;;;;;;;;;;12983820;19;20357;-65
2023/05/21 03:29:50;;;;;;;7.13;3.08;;;;;;;;;;12983928;19;20010;-65
2023/05/21 03:34:08;;;;;;;6.30;2.65;;;;;;;;;;12982793;19;20014;-64
2023/05/21 03:38:26;;;;;;;4.55;3.15;;;;;;;;;;12982534;19;20045;-65
2023/05/21 03:42:43;;;;;;;5.40;2.45;;;;;;;;;;12980633;19;20013;-65
2023/05/21 03:47:01;;;;;;;;;;;;;;;;;;12981054;19;20043;-65
2023/05/21 03:51:20;;;;;;;4.40;2.65;;;;;;;;;;12981768;19;20354;-65
2023/05/21 03:55:38;;;;;;;7.97;2.67;;;;;;;;;;12981239;19;20010;-65
2023/05/21 04:00:00;;;;;;;4.28;2.97;;;;;;;;;;12991318;19;20037;-65
2023/05/21 04:04:19;;;;;;;3.33;2.50;;;;;;;;;;12993190;19;20383;-65
2023/05/21 04:08:38;;;;;;;4.55;2.70;;;;;;;;;;12993544;19;20010;-65
2023/05/21 04:12:56;;;;;;;5.68;2.95;;;;;;;;;;12993338;19;21123;-64
2023/05/21 04:17:14;;;;;;;;;;;;;;;;;;12994574;19;20095;-65
2023/05/21 04:21:32;;;;;;;5.78;2.45;;;;;;;;;;12994090;19;19941;-65
2023/05/21 04:25:51;;;;;;;4.13;2.83;;;;;;;;;;12994450;19;20015;-65
2023/05/21 04:30:10;;;;;;;3.38;1.85;;;;;;;;;;12992187;19;20015;-65
2023/05/21 04:34:28;;;;;;;5.35;2.45;;;;;;;;;;12993464;19;20011;-65
2023/05/21 04:38:47;;;;;;;3.25;2.17;;;;;;;;;;12993420;19;20043;-65
2023/05/21 04:43:05;;;;;;;;;;;;;;;;;;12990573;19;20019;-65
2023/05/21 04:47:22;;;;;;;2.25;1.48;;;;;;;;;;12990495;19;19931;-65
2023/05/21 04:51:42;;;;;;;6.93;2.60;;;;;;;;;;12991459;19;20010;-65
2023/05/21 04:56:00;;;;;;;3.90;2.08;;;;;;;;;;12992040;19;20365;-65
2023/05/21 05:00:18;;;;;;;3.38;2.15;;;;;;;;;;12992059;19;20014;-65
2023/05/21 05:04:36;;;;;;;3.90;2.38;;;;;;;;;;12989891;19;20343;-65
2023/05/21 05:08:55;;;;;;;2.90;1.80;;;;;;;;;;12990230;19;20581;-65
2023/05/21 05:13:13;;;;;;;2.80;1.90;;;;;;;;;;12989284;19;20359;-65
2023/05/21 05:17:33;;;;;;;3.28;2.10;;;;;;;;;;12989553;19;20018;-65
2023/05/21 05:21:53;;;;;;;2.88;1.98;;;;;;;;;;12990903;19;20442;-65
2023/05/21 05:26:11;;;;;;;3.78;2.13;;;;;;;;;;12989620;19;20018;-65
2023/05/21 05:30:29;;;;;;;2.58;2.05;;;;;;;;;;12990240;19;20010;-64
2023/05/21 05:34:48;;;;;;;3.28;2.10;;;;;;;;;;12990149;19;20015;-64
2023/05/21 05:39:06;;;;;;;4.18;2.25;;;;;;;;;;12988094;19;20014;-65
2023/05/21 05:43:25;;;;;;;;;;;;;;;;;;12988238;19;20011;-65
2023/05/21 05:47:42;;;;;;;2.45;1.70;;;;;;;;;;12988772;19;19911;-65
2023/05/21 05:52:02;;;;;;;4.50;3.00;;;;;;;;;;12988634;19;20011;-65
2023/05/21 05:56:22;;;;;;;4.07;1.98;;;;;;;;;;12988440;19;20026;-65
2023/05/21 06:00:40;;;;;;;;;;;;;;;;;;12988505;19;20040;-64
2023/05/21 06:04:57;;;;;;;2.95;1.75;;;;;;;;;;12987898;19;19935;-65
2023/05/21 06:09:15;;;;;;;2.60;2.10;;;;;;;;;;12987133;19;20006;-65
2023/05/21 06:13:33;;;;;;;4.47;2.10;;;;;;;;;;12987090;19;20015;-64
2023/05/21 06:17:51;;;;;;;2.33;1.80;;;;;;;;;;12987178;19;20470;-65
2023/05/21 06:22:08;;;;;;;3.97;2.10;;;;;;;;;;12983582;19;20476;-65
2023/05/21 06:26:27;;;;;;;4.95;2.03;;;;;;;;;;12986623;19;20383;-65
2023/05/21 06:30:46;;;;;;;4.32;2.22;;;;;;;;;;12986104;19;20039;-65
2023/05/21 06:35:06;;;;;;;5.43;2.00;;;;;;;;;;12985632;19;20014;-65
2023/05/21 06:39:23;;;;;;;4.25;2.13;;;;;;;;;;12983739;19;20497;-65
2023/05/21 06:43:41;;;;;;;3.63;2.00;;;;;;;;;;12983432;19;20010;-64
2023/05/21 06:47:59;;;;;;;6.10;1.88;;;;;;;;;;12984337;19;20031;-64
2023/05/21 06:52:18;;;;;;;2.13;1.80;;;;;;;;;;12984297;19;20473;-67
2023/05/21 06:56:36;;;;;;;5.00;2.03;;;;;;;;;;12985995;19;20340;-67
2023/05/21 07:00:53;;;;;;;6.03;1.90;;;;;;;;;;12984737;19;20011;-70
2023/05/21 07:05:11;;;;;;;3.40;1.88;;;;;;;;;;12983788;19;20102;-68
2023/05/21 07:09:29;;;;;;;;;;;;;;;;;;12985040;19;20039;-68
2023/05/21 07:13:47;;;;;;;3.75;2.03;;;;;;;;;;12984901;19;19915;-68
2023/05/21 07:18:06;;;;;;;2.50;1.70;;;;;;;;;;12982373;19;20493;-68
2023/05/21 07:22:24;;;;;;;8.63;2.20;;;;;;;;;;12983841;19;20468;-68
2023/05/21 07:26:45;;;;;;;2.45;1.55;;;;;;;;;;12983309;19;20032;-70
2023/05/21 07:31:04;;;;;;;3.35;1.92;;;;;;;;;;12983505;19;20014;-68
2023/05/21 07:35:22;;;;;;;3.33;1.90;;;;;;;;;;12982865;19;20011;-70
2023/05/21 07:39:40;;;;;;;5.10;1.80;;;;;;;;;;12983238;19;20033;-69
2023/05/21 07:44:00;;;;;;;;;;;;;;;;;;12982552;19;20014;-68
2023/05/21 07:48:21;;;;;;;3.30;1.55;;;;;;;;;;12983199;19;19935;-68
2023/05/21 07:52:39;;;;;;;3.88;1.60;;;;;;;;;;12982984;19;20022;-68
2023/05/21 07:56:57;;;;;;;2.88;1.60;;;;;;;;;;12983156;19;20014;-67
2023/05/21 08:01:16;;;;;;;7.00;1.88;;;;;;;;;;12982257;19;20480;-68
2023/05/21 08:05:33;;;;;;;2.05;1.50;;;;;;;;;;12982494;19;20784;-68
2023/05/21 08:09:53;;;;;;;2.00;1.38;;;;;;;;;;12981819;19;20503;-68
2023/05/21 08:14:11;;;;;;;3.38;1.60;;;;;;;;;;12981216;19;20018;-69
2023/05/21 08:18:28;;;;;;;2.47;1.38;;;;;;;;;;12981583;19;20014;-68
2023/05/21 08:22:47;;;;;;;2.45;1.30;;;;;;;;;;12981343;19;20011;-67
2023/05/21 08:27:04;;;;;;;5.55;1.42;;;;;;;;;;12979960;19;20059;-68
2023/05/21 08:31:22;;;;;;;3.83;1.70;;;;;;;;;;12980132;19;20440;-68
2023/05/21 08:35:40;;;;;;;3.47;1.63;;;;;;;;;;12980652;19;20023;-68
2023/05/21 08:39:58;;;;;;;2.55;1.90;;;;;;;;;;12980186;19;20109;-68
2023/05/21 08:44:20;;;;;;;2.72;1.50;;;;;;;;;;12980074;19;20484;-67
2023/05/21 08:48:39;;;;;;;3.33;1.67;;;;;;;;;;12989631;19;20031;-67
2023/05/21 08:52:57;;;;;;;3.40;1.70;;;;;;;;;;12989512;19;20465;-68
2023/05/21 08:57:18;;;;;;;1.60;1.08;;;;;;;;;;12991947;19;20014;-68
2023/05/21 09:01:41;;;;;;;7.25;2.17;;;;;;;;;;12988767;19;20029;-68
2023/05/21 09:05:59;;;;;;;2.20;1.55;;;;;;;;;;12990183;19;20034;-68
2023/05/21 09:10:20;;;;;;;2.72;1.42;;;;;;;;;;12990031;19;20018;-68
2023/05/21 09:14:40;;;;;;;1.35;0.80;;;;;;;;;;12990010;19;20446;-68
2023/05/21 09:18:59;;;;;;;1.58;1.25;;;;;;;;;;12989886;19;20348;-67
2023/05/21 09:23:20;;;;;;;3.47;1.77;;;;;;;;;;12990276;19;20010;-67
2023/05/21 09:27:39;;;;;;;2.15;1.20;;;;;;;;;;12989865;19;20009;-67
2023/05/21 09:32:04;;;;;;;9.00;1.67;;;;;;;;;;12990519;19;20010;-68
2023/05/21 09:36:23;;;;;;;2.97;1.67;;;;;;;;;;12988012;19;20010;-68
2023/05/21 09:40:46;;;;;;;2.47;1.50;;;;;;;;;;12989382;19;20438;-68
2023/05/21 09:45:09;;;;;;;3.70;1.60;;;;;;;;;;12989332;19;20023;-68
2023/05/21 09:49:27;;;;;;;2.58;1.58;;;;;;;;;;12989968;19;20010;-68
2023/05/21 09:53:54;;;;;;;2.75;1.63;;;;;;;;;;12989435;19;20013;-68
2023/05/21 09:58:12;;;;;;;1.27;1.17;;;;;;;;;;12987782;19;20015;-67
2023/05/21 10:02:32;;;;;;;2.75;1.45;;;;;;;;;;12986854;19;20018;-67
2023/05/21 10:06:51;;;;;;;2.67;1.50;;;;;;;;;;12987499;19;20010;-67
2023/05/21 10:11:10;;;;;;;2.50;1.48;;;;;;;;;;12988281;19;20010;-67
2023/05/21 10:15:36;;;;;;;2.55;1.20;;;;;;;;;;12987581;19;20021;-68
2023/05/21 10:19:56;;;;;;;3.80;1.27;;;;;;;;;;12986820;19;20006;-68
2023/05/21 10:24:14;;;;;;;3.38;1.50;;;;;;;;;;12987185;19;20006;-67
2023/05/21 10:28:35;;;;;;;2.22;1.52;;;;;;;;;;12985607;19;20035;-66
2023/05/21 10:32:56;;;;;;;0.60;0.60;;;;;;;;;;12986753;19;20022;-68
2023/05/21 10:37:15;;;;;;;2.75;1.45;;;;;;;;;;12984767;19;20013;-67
2023/05/21 10:41:49;;;;;;;7.00;1.77;;;;;;;;;;12985755;19;20021;-67
2023/05/21 10:46:52;;;;;;;1.63;1.08;;;;;;;;;;12983533;19;20017;-67
2023/05/21 10:51:25;;;;;;;1.90;1.50;;;;;;;;;;12985750;19;20010;-67
2023/05/21 10:56:28;;;;;;;1.30;1.20;;;;;;;;;;12985741;19;20295;-66
2023/05/21 11:00:46;;;;;;;2.50;1.50;;;;;;;;;;12986539;19;20375;-67
2023/05/21 11:05:06;;;;;;;2.20;1.58;;;;;;;;;;12985563;19;20365;-66
2023/05/21 11:09:25;;;;;;;10.95;1.60;;;;;;;;;;12982411;19;20011;-67
2023/05/21 11:13:49;;;;;;;1.85;1.40;;;;;;;;;;12984260;19;20029;-66
2023/05/21 11:18:08;;;;;;;2.55;1.60;;;;;;;;;;12983110;19;20041;-67
2023/05/21 11:22:26;;;;;;;4.18;1.33;;;;;;;;;;12983339;19;20019;-67
2023/05/21 11:26:47;;;;;;;5.13;1.15;;;;;;;;;;12984177;19;20018;-67
2023/05/21 11:31:26;;;;;;;1.95;1.30;;;;;;;;;;12983110;19;20341;-66
2023/05/21 11:35:43;;;;;;;2.97;1.50;;;;;;;;;;12984342;19;20010;-67
2023/05/21 11:40:24;;;;;;;2.15;1.38;;;;;;;;;;12982909;19;20018;-67
2023/05/21 11:44:47;;;;;;;2.42;1.38;;;;;;;;;;12984221;19;20031;-67
2023/05/21 11:49:05;;;;;;;3.40;1.20;;;;;;;;;;12981082;19;20484;-68
2023/05/21 11:53:29;;;;;;;4.03;1.20;;;;;;;;;;12982976;19;20022;-67
2023/05/21 11:57:51;;;;;;;3.63;1.27;;;;;;;;;;12982809;19;20011;-66
2023/05/21 12:02:15;;;;;;;6.07;1.35;;;;;;;;;;12981393;19;20047;-67
2023/05/21 12:06:33;;;;;;;2.25;1.02;;;;;;;;;;12981807;19;20018;-66
2023/05/21 12:10:58;;;;;;;2.28;0.88;;;;;;;;;;12982238;19;20488;-66
2023/05/21 12:15:17;;;;;;;2.78;1.55;;;;;;;;;;12981227;19;20010;-67
2023/05/21 12:19:36;;;;;;;1.90;1.33;;;;;;;;;;12988153;19;20018;-66
2023/05/21 12:23:55;;;;;;;4.25;1.13;;;;;;;;;;12993843;19;20441;-67
2023/05/21 12:28:12;;;;;;;3.88;1.38;;;;;;;;;;12993469;19;20017;-66
2023/05/21 12:32:31;;;;;;;4.80;1.63;;;;;;;;;;12994924;19;20010;-66
2023/05/21 12:36:50;;;;;;;1.70;1.02;;;;;;;;;;12991324;19;20897;-66
2023/05/21 12:41:09;;;;;;;3.38;1.30;;;;;;;;;;12990959;19;20014;-66
2023/05/21 12:45:31;;;;;;;1.73;1.15;;;;;;;;;;12992717;19;21009;-66
2023/05/21 12:49:56;;;;;;;1.80;1.23;;;;;;;;;;12992612;19;20011;-66
2023/05/21 12:54:16;;;;;;;1.88;1.17;;;;;;;;;;12989751;19;20018;-66
2023/05/21 12:58:34;;;;;;;2.97;1.55;;;;;;;;;;12992237;19;20014;-66
2023/05/21 13:02:52;;;;;;;2.15;1.13;;;;;;;;;;12991717;19;20014;-67
2023/05/21 13:07:10;;;;;;;2.25;1.40;;;;;;;;;;12990402;19;20010;-67
2023/05/21 13:11:28;;;;;;;2.65;1.50;;;;;;;;;;12992057;19;20029;-68
2023/05/21 13:15:46;;;;;;;4.38;1.17;;;;;;;;;;12992098;19;20565;-67
2023/05/21 13:20:11;;;;;;;5.30;1.17;;;;;;;;;;12990600;19;20022;-67
2023/05/21 13:24:29;;;;;;;3.75;1.08;;;;;;;;;;12990800;19;20038;-67
2023/05/21 13:28:47;;;;;;;3.17;1.08;;;;;;;;;;12990197;19;20047;-67
2023/05/21 13:33:05;;;;;;;3.38;1.30;;;;;;;;;;12988248;19;20014;-66
2023/05/21 13:37:24;;;;;;;2.55;1.40;;;;;;;;;;12990268;19;20017;-66
2023/05/21 13:41:43;;;;;;;4.07;1.27;;;;;;;;;;12989181;19;20014;-64
2023/05/21 13:46:01;;;;;;;1.92;1.17;;;;;;;;;;12988779;19;20516;-65
2023/05/21 13:50:19;;;;;;;1.73;1.17;;;;;;;;;;12987856;19;20691;-66
2023/05/21 13:54:37;;;;;;;1.95;1.25;;;;;;;;;;12989369;19;20025;-66
2023/05/21 13:58:55;;;;;;;2.17;1.23;;;;;;;;;;12989004;19;20023;-64
2023/05/21 14:03:12;;;;;;;7.07;1.65;;;;;;;;;;12985551;19;20022;-65
2023/05/21 14:07:30;;;;;;;1.85;0.93;;;;;;;;;;12986823;19;20372;-65
2023/05/21 14:11:48;;;;;;;4.22;1.58;;;;;;;;;;12987113;19;20022;-66
2023/05/21 14:16:07;;;;;;;3.78;1.30;;;;;;;;;;12986614;19;20034;-65
2023/05/21 14:20:25;;;;;;;4.43;1.08;;;;;;;;;;12984175;19;26220;-64
2023/05/21 14:24:42;;;;;;;2.65;1.40;;;;;;;;;;12974503;19;20310;-64
2023/05/21 14:29:02;;;;;;;2.15;1.40;;;;;;;;;;12983966;19;20028;-64
2023/05/21 14:33:19;;;;;;;1.58;0.88;;;;;;;;;;12987484;19;20014;-63
2023/05/21 14:37:38;;;;;;;2.33;1.52;;;;;;;;;;12986428;19;20007;-68
2023/05/21 14:41:56;;;;;;;4.70;1.45;;;;;;;;;;12982992;19;20014;-65
2023/05/21 14:46:15;;;;;;;2.85;1.63;;;;;;;;;;12985309;19;20022;-67
2023/05/21 14:50:34;;;;;;;2.38;1.70;;;;;;;;;;12986094;19;20365;-67
2023/05/21 14:54:53;;;;;;;2.38;1.20;;;;;;;;;;12985761;19;20041;-67
2023/05/21 14:59:11;;;;;;;;;;;;;;;;;;12986046;19;20039;-65
2023/05/21 15:03:29;;;;;;;1.88;1.13;;;;;;;;;;12985620;19;19923;-67
2023/05/21 15:07:47;;;;;;;2.15;1.60;;;;;;;;;;12983087;19;20029;-67
2023/05/21 15:12:05;;;;;;;2.83;1.23;;;;;;;;;;12985335;19;20441;-67
2023/05/21 15:16:23;;;;;;;1.65;1.30;;;;;;;;;;12986330;19;20006;-67
2023/05/21 15:20:41;;;;;;;;;;;;;;;;;;12985835;19;20029;-67
2023/05/21 15:25:00;;;;;;;5.70;1.35;;;;;;;;;;12984274;19;19926;-68
2023/05/21 15:29:18;;;;;;;2.05;1.10;;;;;;;;;;12983545;19;20006;-68
2023/05/21 15:33:36;;;;;;;2.25;1.23;;;;;;;;;;12981586;19;20034;-67
2023/05/21 15:37:54;;;;;;;3.85;1.45;;;;;;;;;;12983546;19;20066;-67
2023/05/21 15:42:13;;;;;;;2.35;1.27;;;;;;;;;;12982054;19;20023;-67
2023/05/21 15:46:31;;;;;;;3.30;1.73;;;;;;;;;;12982968;19;20018;-67
2023/05/21 15:50:49;;;;;;;2.60;1.35;;;;;;;;;;12982688;19;20038;-67
2023/05/21 15:55:07;;;;;;;2.63;1.10;;;;;;;;;;12981602;19;20572;-67
2023/05/21 15:59:26;;;;;;;1.75;1.02;;;;;;;;;;12983514;19;20019;-67
2023/05/21 16:03:44;;;;;;;4.55;1.10;;;;;;;;;;12983089;19;20017;-67
2023/05/21 16:08:03;;;;;;;2.92;1.25;;;;;;;;;;12980030;19;20021;-66
2023/05/21 16:12:21;;;;;;;2.00;1.40;;;;;;;;;;12981743;19;20042;-67
2023/05/21 16:16:39;;;;;;;;;;;;;;;;;;12982131;19;20352;-66
2023/05/21 16:20:58;;;;;;;4.28;1.33;;;;;;;;;;12981169;19;19919;-67
2023/05/21 16:25:16;;;;;;;2.20;0.88;;;;;;;;;;12981788;19;20904;-68
2023/05/21 16:29:36;;;;;;;3.05;1.20;;;;;;;;;;12980225;19;20018;-67
2023/05/21 16:33:57;;;;;;;2.45;1.02;;;;;;;;;;12979851;19;20031;-67
2023/05/21 16:38:15;;;;;;;3.70;1.10;;;;;;;;;;12979413;19;20010;-67
2023/05/21 16:42:38;;;;;;;1.90;1.33;;;;;;;;;;12976685;19;20030;-67
2023/05/21 16:46:56;;;;;;;1.67;1.20;;;;;;;;;;12978418;19;20015;-67
2023/05/21 16:51:14;;;;;;;2.65;1.38;;;;;;;;;;12978132;19;20014;-67
2023/05/21 16:55:34;;;;;;;3.92;1.40;;;;;;;;;;12978879;19;20018;-67
2023/05/21 16:59:53;;;;;;;2.15;1.13;;;;;;;;;;12979320;19;20510;-66
2023/05/21 17:04:10;;;;;;;1.42;1.15;;;;;;;;;;12976920;19;20007;-67
2023/05/21 17:08:28;;;;;;;1.40;1.00;;;;;;;;;;12988268;19;20497;-67
2023/05/21 17:12:47;;;;;;;1.70;1.15;;;;;;;;;;12990244;19;20565;-66
2023/05/21 17:17:08;;;;;;;1.48;1.05;;;;;;;;;;12989171;19;20019;-67
2023/05/21 17:21:26;;;;;;;2.58;1.60;;;;;;;;;;12989343;19;20014;-66
2023/05/21 17:25:44;;;;;;;2.00;1.08;;;;;;;;;;12965755;19;20608;-66
2023/05/21 17:30:08;;;;;;;1.95;1.23;;;;;;;;;;12987874;19;20393;-65
2023/05/21 17:34:31;;;;;;;1.52;1.13;;;;;;;;;;12988699;19;20030;-65
2023/05/21 17:38:52;;;;;;;2.17;1.30;;;;;;;;;;12985711;19;19999;-66
2023/05/21 17:43:11;;;;;;;4.60;2.25;;;;;;;;;;12986983;19;20006;-65
2023/05/21 17:47:29;;;;;;;5.07;2.60;;;;;;;;;;12988282;19;20481;-65
2023/05/21 17:51:47;;;;;;;6.68;3.08;;;;;;;;;;12988627;19;20006;-66
2023/05/21 17:56:10;;;;;;;3.17;1.90;;;;;;;;;;12986106;19;20505;-67
2023/05/21 18:00:32;;;;;;;7.43;1.80;;;;;;;;;;12987746;19;20015;-66
2023/05/21 18:04:51;;;;;;;2.75;1.77;;;;;;;;;;12984290;19;20015;-65
2023/05/21 18:09:12;;;;;;;5.22;2.53;;;;;;;;;;12985651;19;20481;-65
2023/05/21 18:13:33;;;;;;;6.53;1.67;;;;;;;;;;12986728;19;20030;-65
2023/05/21 18:17:51;;;;;;;1.77;1.23;;;;;;;;;;12963702;19;20014;-66
2023/05/21 18:22:12;;;;;;;3.83;1.67;;;;;;;;;;12966847;19;20017;-65
2023/05/21 18:26:30;;;;;;;4.85;2.50;;;;;;;;;;12986290;19;20006;-65
2023/05/21 18:30:48;;;;;;;2.58;2.10;;;;;;;;;;12986452;19;20006;-66
2023/05/21 18:35:08;;;;;;;;;;;;;;;;;;12986143;19;20082;-65
2023/05/21 18:39:30;;;;;;;3.88;1.58;;;;;;;;;;12985635;19;19949;-64
2023/05/21 18:43:50;;;;;;;3.83;1.50;;;;;;;;;;12985285;19;20014;-65
2023/05/21 18:48:10;;;;;;;1.30;1.00;;;;;;;;;;12984762;19;20586;-66
2023/05/21 18:52:37;;;;;;;2.08;1.30;;;;;;;;;;12985254;19;20018;-65
2023/05/21 18:56:59;;;;;;;1.95;1.27;;;;;;;;;;12984127;19;20354;-65
2023/05/21 19:01:17;;;;;;;1.95;1.38;;;;;;;;;;12983347;19;20294;-65
2023/05/21 19:05:36;;;;;;;1.85;1.05;;;;;;;;;;12983394;19;20018;-65
2023/05/21 19:09:54;;;;;;;2.50;1.33;;;;;;;;;;12983233;19;20465;-66
2023/05/21 19:14:12;;;;;;;;;;;;;;;;;;12983326;19;20031;-67
2023/05/21 19:18:31;;;;;;;1.30;0.93;;;;;;;;;;12982962;19;20434;-65
2023/05/21 19:22:49;;;;;;;3.97;1.27;;;;;;;;;;12982422;19;20010;-65
2023/05/21 19:27:07;;;;;;;2.00;1.33;;;;;;;;;;12981831;19;20014;-66
2023/05/21 19:31:31;;;;;;;3.05;1.38;;;;;;;;;;12982615;19;20023;-66
2023/05/21 19:35:51;;;;;;;4.15;1.38;;;;;;;;;;12982679;19;20357;-66
2023/05/21 19:40:10;;;;;;;1.98;1.48;;;;;;;;;;12981685;19;20014;-66
2023/05/21 19:44:28;;;;;;;1.42;0.98;;;;;;;;;;12981425;19;20018;-66
2023/05/21 19:48:47;;;;;;;2.25;1.55;;;;;;;;;;12981093;19;20469;-66
2023/05/21 19:53:05;;;;;;;2.70;1.45;;;;;;;;;;12977419;19;20022;-66
2023/05/21 19:57:25;;;;;;;4.65;1.77;;;;;;;;;;12981378;19;20318;-67
2023/05/21 20:01:43;;;;;;;2.55;1.38;;;;;;;;;;12979664;19;20466;-65
2023/05/21 20:06:02;;;;;;;2.00;1.45;;;;;;;;;;12980240;19;20014;-66
2023/05/21 20:10:20;;;;;;;1.92;1.15;;;;;;;;;;12979520;19;20019;-67
2023/05/21 20:14:38;;;;;;;;;;;;;;;;;;12981214;19;20400;-66
2023/05/21 20:18:56;;;;;;;3.58;1.20;;;;;;;;;;12980160;19;19915;-66
2023/05/21 20:23:14;;;;;;;3.15;1.30;;;;;;;;;;12979862;19;20045;-66
2023/05/21 20:27:37;;;;;;;1.85;1.40;;;;;;;;;;12980619;19;20022;-65
2023/05/21 20:31:55;;;;;;;2.72;1.35;;;;;;;;;;12980358;19;20011;-66
2023/05/21 20:36:14;;;;;;;;;;;;;;;;;;12980509;19;20033;-65
2023/05/21 20:40:31;;;;;;;3.42;1.90;;;;;;;;;;12982238;19;19938;-65
2023/05/21 20:44:51;;;;;;;2.28;1.58;;;;;;;;;;12989652;19;20021;-66
2023/05/21 20:49:09;;;;;;;1.65;0.93;;;;;;;;;;12989198;19;20018;-66
2023/05/21 20:53:27;;;;;;;2.85;1.63;;;;;;;;;;12991208;19;20767;-66
2023/05/21 20:57:44;;;;;;;2.08;1.40;;;;;;;;;;12991516;19;20349;-65
2023/05/21 21:02:04;;;;;;;;;;;;;;;;;;12990466;19;20006;-65
2023/05/21 21:06:24;;;;;;;3.90;1.40;;;;;;;;;;12990942;19;19911;-65
2023/05/21 21:10:45;;;;;;;4.07;1.90;;;;;;;;;;12990062;19;20010;-65
2023/05/21 21:15:06;;;;;;;4.32;0.98;;;;;;;;;;12989111;19;20025;-65
2023/05/21 21:19:24;;;;;;;2.65;1.20;;;;;;;;;;12991746;19;20026;-65
2023/05/21 21:23:42;;;;;;;2.05;1.38;;;;;;;;;;12990172;19;20014;-65
2023/05/21 21:28:00;;;;;;;4.25;1.02;;;;;;;;;;12988958;19;20011;-66
2023/05/21 21:32:19;;;;;;;4.22;1.40;;;;;;;;;;12989391;19;20015;-65
2023/05/21 21:36:36;;;;;;;2.25;1.20;;;;;;;;;;12987170;19;20006;-65
2023/05/21 21:40:56;;;;;;;2.20;1.48;;;;;;;;;;12987987;19;20055;-66
2023/05/21 21:45:15;;;;;;;1.10;0.88;;;;;;;;;;12987304;19;20990;-66
2023/05/21 21:49:33;;;;;;;1.73;1.10;;;;;;;;;;12987677;19;20014;-66
2023/05/21 21:53:50;;;;;;;2.92;1.27;;;;;;;;;;12986921;19;20007;-66
2023/05/21 21:58:09;;;;;;;3.05;1.05;;;;;;;;;;12987738;19;20473;-67
2023/05/21 22:02:27;;;;;;;1.70;1.08;;;;;;;;;;12988249;19;20015;-66
2023/05/21 22:06:45;;;;;;;1.85;1.20;;;;;;;;;;12987191;19;20006;-66
2023/05/21 22:11:05;;;;;;;3.15;1.40;;;;;;;;;;12984954;19;20027;-66
2023/05/21 22:15:23;;;;;;;3.72;1.00;;;;;;;;;;12986428;19;20468;-65
2023/05/21 22:19:42;;;;;;;2.97;1.60;;;;;;;;;;12984220;19;20038;-65
2023/05/21 22:24:00;;;;;;;2.65;1.40;;;;;;;;;;12986367;19;20037;-66
2023/05/21 22:28:21;;;;;;;2.75;1.30;;;;;;;;;;12985180;19;20018;-65
2023/05/21 22:32:39;;;;;;;4.03;1.40;;;;;;;;;;12986563;19;20013;-66
2023/05/21 22:36:57;;;;;;;1.58;1.20;;;;;;;;;;12985685;19;20011;-65
2023/05/21 22:41:15;;;;;;;1.70;1.08;;;;;;;;;;12984351;19;20014;-64
2023/05/21 22:45:34;;;;;;;;;;;;;;;;;;12985935;19;20472;-65
2023/05/21 22:49:53;;;;;;;1.88;1.30;;;;;;;;;;12985055;19;19917;-62
2023/05/21 22:54:12;;;;;;;2.22;1.23;;;;;;;;;;12983933;19;20014;-61
2023/05/21 22:58:31;;;;;;;3.15;1.35;;;;;;;;;;12984407;19;20500;-62
2023/05/21 23:02:48;;;;;;;9.52;1.48;;;;;;;;;;12981800;19;20022;-62
2023/05/21 23:07:11;;;;;;;8.95;1.85;;;;;;;;;;12983299;19;20014;-62
2023/05/21 23:11:29;;;;;;;2.88;1.50;;;;;;;;;;12984006;19;20035;-62
2023/05/21 23:15:47;;;;;;;;;;;;;;;;;;12984650;19;20027;-62
2023/05/21 23:20:10;;;;;;;1.67;1.30;;;;;;;;;;12981815;19;19944;-62
2023/05/21 23:24:28;;;;;;;3.35;1.42;;;;;;;;;;12983630;19;20018;-62
2023/05/21 23:28:47;;;;;;;1.70;1.10;;;;;;;;;;12982682;19;20000;-62
2023/05/21 23:33:05;;;;;;;5.18;1.50;;;;;;;;;;12982456;19;20010;-63
2023/05/21 23:37:24;;;;;;;1.85;1.50;;;;;;;;;;12982774;19;20018;-63
2023/05/21 23:41:43;;;;;;;2.47;1.48;;;;;;;;;;12981737;19;20513;-62
2023/05/21 23:46:01;;;;;;;1.85;1.33;;;;;;;;;;12980957;19;20011;-65
2023/05/21 23:50:20;;;;;;;2.22;1.40;;;;;;;;;;12980935;19;20014;-63
2023/05/21 23:54:38;;;;;;;5.18;1.63;;;;;;;;;;12981194;19;20023;-63
2023/05/21 23:58:56;;;;;;;3.70;1.75;;;;;;;;;;12982001;19;20019;-63
